createdAt,value
2023-02-28T00:02:28.217Z,103283.00
2023-02-28T00:05:21.158Z,103291.78
2023-02-28T00:08:11.086Z,103281.44
2023-02-28T00:11:05.462Z,103279.44
2023-02-28T00:13:54.878Z,103293.69
2023-02-28T00:16:44.048Z,103291.19
2023-02-28T00:19:33.245Z,103294.84
2023-02-28T00:22:24.312Z,103284.41
2023-02-28T00:25:16.452Z,103294.59
2023-02-28T00:28:07.225Z,103287.59
2023-02-28T00:30:56.458Z,103294.72
2023-02-28T00:33:45.893Z,103293.06
2023-02-28T00:36:37.469Z,103298.19
2023-02-28T00:39:27.407Z,103300.19
2023-02-28T00:42:18.874Z,103305.66
2023-02-28T00:45:12.699Z,103304.13
2023-02-28T00:48:01.973Z,103311.22
2023-02-28T00:50:51.818Z,103304.69
2023-02-28T00:53:41.076Z,103309.91
2023-02-28T00:56:30.340Z,103301.38
2023-02-28T00:59:20.586Z,103301.38
2023-02-28T01:02:11.246Z,103307.91
2023-02-28T01:05:00.491Z,103311.56
2023-02-28T01:07:52.680Z,103311.31
2023-02-28T01:10:42.377Z,103314.53
2023-02-28T01:13:31.625Z,103307.66
2023-02-28T01:16:20.928Z,103308.50
2023-02-28T01:19:11.548Z,103312.31
2023-02-28T01:22:04.144Z,103322.25
2023-02-28T01:24:53.616Z,103323.94
2023-02-28T01:27:43.160Z,103311.94
2023-02-28T01:30:32.924Z,103313.00
2023-02-28T01:33:22.163Z,103309.19
2023-02-28T01:36:16.186Z,103306.09
2023-02-28T01:39:06.119Z,103312.06
2023-02-28T01:41:55.349Z,103315.38
2023-02-28T01:45:24.294Z,103317.84
2023-02-28T01:48:13.750Z,103312.88
2023-02-28T01:51:09.688Z,103313.97
2023-02-28T01:54:04.674Z,103309.78
2023-02-28T01:57:01.421Z,103315.63
2023-02-28T01:59:56.862Z,103308.97
2023-02-28T02:02:49.651Z,103318.59
2023-02-28T02:05:41.812Z,103310.66
2023-02-28T02:08:32.004Z,103311.22
2023-02-28T02:11:25.055Z,103303.28
2023-02-28T02:14:50.517Z,103308.50
2023-02-28T02:17:46.823Z,103289.63
2023-02-28T02:21:27.195Z,103313.97
2023-02-28T02:24:56.789Z,103308.13
2023-02-28T02:28:25.044Z,103299.94
2023-02-28T02:31:44.016Z,103313.97
2023-02-28T02:34:51.754Z,103307.81
2023-02-28T02:37:50.737Z,103317.41
2023-02-28T02:40:48.597Z,103315.03
2023-02-28T02:43:42.970Z,103318.84
2023-02-28T02:46:37.107Z,103308.38
2023-02-28T02:49:33.492Z,103313.03
2023-02-28T02:52:35.095Z,103300.56
2023-02-28T02:55:26.461Z,103304.56
2023-02-28T02:58:20.998Z,103303.41
2023-02-28T03:01:13.155Z,103302.78
2023-02-28T03:04:07.289Z,103287.72
2023-02-28T03:06:57.056Z,103296.03
2023-02-28T03:09:54.852Z,103291.28
2023-02-28T03:12:54.909Z,103297.47
2023-02-28T03:16:03.475Z,103302.34
2023-02-28T03:19:05.124Z,103294.28
2023-02-28T03:22:16.603Z,103303.66
2023-02-28T03:25:14.655Z,103299.03
2023-02-28T03:28:11.172Z,103315.03
2023-02-28T03:31:10.234Z,103309.81
2023-02-28T03:34:06.381Z,103305.91
2023-02-28T03:36:59.868Z,103305.91
2023-02-28T03:39:56.313Z,103318.72
2023-02-28T03:42:54.009Z,103319.69
2023-02-28T03:45:45.945Z,103311.97
2023-02-28T03:48:42.893Z,103323.00
2023-02-28T03:51:34.296Z,103313.72
2023-02-28T03:54:30.731Z,103322.78
2023-02-28T03:57:29.218Z,103320.50
2023-02-28T04:00:29.268Z,103325.50
2023-02-28T04:03:18.605Z,103323.00
2023-02-28T04:06:15.199Z,103323.59
2023-02-28T04:09:07.474Z,103326.34
2023-02-28T04:11:57.955Z,103323.59
2023-02-28T04:14:47.132Z,103328.00
2023-02-28T04:17:37.794Z,103325.25
2023-02-28T04:20:27.014Z,103328.56
2023-02-28T04:23:16.292Z,103330.47
2023-02-28T04:26:06.995Z,103328.56
2023-02-28T04:28:56.326Z,103329.28
2023-02-28T04:31:45.834Z,103338.91
2023-02-28T04:34:36.519Z,103331.09
2023-02-28T04:37:29.788Z,103340.47
2023-02-28T04:40:19.446Z,103345.47
2023-02-28T04:43:08.637Z,103341.03
2023-02-28T04:45:58.959Z,103331.91
2023-02-28T04:48:48.247Z,103357.44
2023-02-28T04:51:39.333Z,103356.25
2023-02-28T04:54:29.440Z,103351.03
2023-02-28T04:57:18.678Z,103349.59
2023-02-28T05:00:12.577Z,103358.88
2023-02-28T05:03:01.746Z,103357.44
2023-02-28T05:05:50.930Z,103360.66
2023-02-28T05:08:41.618Z,103350.81
2023-02-28T05:11:36.194Z,103342.47
2023-02-28T05:14:25.513Z,103363.50
2023-02-28T05:17:14.754Z,103381.19
2023-02-28T05:20:14.996Z,103376.66
2023-02-28T05:23:04.589Z,103372.28
2023-02-28T05:25:55.225Z,103369.50
2023-02-28T05:28:44.694Z,103373.06
2023-02-28T05:31:34.595Z,103381.47
2023-02-28T05:34:23.784Z,103381.34
2023-02-28T05:37:15.411Z,103380.84
2023-02-28T05:40:07.091Z,103400.84
2023-02-28T05:42:57.701Z,103373.63
2023-02-28T05:45:46.938Z,103388.34
2023-02-28T05:48:36.882Z,103387.00
2023-02-28T05:51:26.174Z,103400.63
2023-02-28T05:54:15.595Z,103393.94
2023-02-28T05:57:10.066Z,103395.16
2023-02-28T06:00:04.414Z,103387.00
2023-02-28T06:03:03.204Z,103390.91
2023-02-28T06:05:52.575Z,103391.50
2023-02-28T06:08:41.822Z,103395.91
2023-02-28T06:11:31.322Z,103389.59
2023-02-28T06:14:22.637Z,103391.66
2023-02-28T06:17:19.482Z,103394.13
2023-02-28T06:20:11.836Z,103378.63
2023-02-28T06:23:01.626Z,103368.25
2023-02-28T06:25:51.110Z,103389.91
2023-02-28T06:28:40.594Z,103378.25
2023-02-28T06:31:30.477Z,103380.91
2023-02-28T06:34:21.727Z,103381.56
2023-02-28T06:37:13.977Z,103384.31
2023-02-28T06:40:07.007Z,103383.72
2023-02-28T06:42:56.371Z,103405.78
2023-02-28T06:45:46.289Z,103426.19
2023-02-28T06:48:38.287Z,103409.66
2023-02-28T06:51:32.015Z,103426.03
2023-02-28T06:54:21.319Z,103425.66
2023-02-28T06:57:10.650Z,103427.88
2023-02-28T07:00:01.328Z,103430.22
2023-02-28T07:02:50.773Z,103436.50
2023-02-28T07:05:42.058Z,103436.97
2023-02-28T07:08:36.878Z,103434.78
2023-02-28T07:11:29.270Z,103450.72
2023-02-28T07:14:18.662Z,103450.38
2023-02-28T07:17:10.129Z,103445.81
2023-02-28T07:19:59.616Z,103447.88
2023-02-28T07:22:56.306Z,103451.63
2023-02-28T07:25:47.952Z,103449.31
2023-02-28T07:28:37.193Z,103450.19
2023-02-28T07:31:26.431Z,103456.03
2023-02-28T07:34:15.858Z,103452.25
2023-02-28T07:37:06.558Z,103453.09
2023-02-28T07:39:55.705Z,103462.94
2023-02-28T07:42:46.506Z,103454.34
2023-02-28T07:45:39.811Z,103471.16
2023-02-28T07:48:28.978Z,103469.50
2023-02-28T07:51:18.522Z,103468.13
2023-02-28T07:54:08.815Z,103477.75
2023-02-28T07:56:58.046Z,103463.91
2023-02-28T07:59:48.763Z,103486.97
2023-02-28T08:02:38.816Z,103479.88
2023-02-28T08:05:28.016Z,103484.03
2023-02-28T08:08:18.225Z,103476.69
2023-02-28T08:11:07.675Z,103484.19
2023-02-28T08:13:57.593Z,103494.03
2023-02-28T08:16:48.256Z,103491.25
2023-02-28T08:19:37.426Z,103494.78
2023-02-28T08:22:26.705Z,103501.91
2023-02-28T08:25:16.156Z,103494.94
2023-02-28T08:28:06.450Z,103496.00
2023-02-28T08:30:56.029Z,103487.81
2023-02-28T08:33:49.711Z,103488.81
2023-02-28T08:36:39.558Z,103497.59
2023-02-28T08:39:28.945Z,103481.47
2023-02-28T08:42:18.190Z,103495.78
2023-02-28T08:45:08.991Z,103499.94
2023-02-28T08:47:58.398Z,103479.50
2023-02-28T08:51:06.664Z,103498.66
2023-02-28T08:54:00.905Z,103494.78
2023-02-28T08:56:50.183Z,103500.41
2023-02-28T08:59:39.514Z,103506.00
2023-02-28T09:02:28.831Z,103499.63
2023-02-28T09:05:18.437Z,103496.28
2023-02-28T09:08:09.334Z,103500.44
2023-02-28T09:11:00.645Z,103502.13
2023-02-28T09:13:50.817Z,103507.97
2023-02-28T09:16:40.108Z,103511.06
2023-02-28T09:19:29.484Z,103514.75
2023-02-28T09:22:19.101Z,103503.72
2023-02-28T09:25:10.268Z,103522.34
2023-02-28T09:27:59.644Z,103510.44
2023-02-28T09:30:51.736Z,103519.97
2023-02-28T09:33:41.026Z,103529.38
2023-02-28T09:36:41.903Z,103510.13
2023-02-28T09:39:32.968Z,103518.16
2023-02-28T09:42:30.563Z,103528.75
2023-02-28T09:45:26.856Z,103517.84
2023-02-28T09:48:23.218Z,103523.47
2023-02-28T09:51:24.173Z,103521.97
2023-02-28T09:54:19.944Z,103520.66
2023-02-28T09:57:16.713Z,103525.19
2023-02-28T10:00:19.081Z,103518.78
2023-02-28T10:03:27.935Z,103517.50
2023-02-28T10:06:20.666Z,103517.41
2023-02-28T10:09:15.589Z,103518.06
2023-02-28T10:12:10.723Z,103508.41
2023-02-28T10:15:03.466Z,103519.44
2023-02-28T10:18:08.777Z,103507.44
2023-02-28T10:20:59.216Z,103516.63
2023-02-28T10:23:50.569Z,103518.19
2023-02-28T10:26:39.858Z,103527.22
2023-02-28T10:29:30.933Z,103523.28
2023-02-28T10:32:23.578Z,103530.88
2023-02-28T10:35:20.177Z,103529.22
2023-02-28T10:38:19.770Z,103522.31
2023-02-28T10:41:11.951Z,103530.03
2023-02-28T10:44:21.929Z,103525.03
2023-02-28T10:47:18.914Z,103517.13
2023-02-28T10:50:28.319Z,103531.38
2023-02-28T10:53:44.854Z,103524.00
2023-02-28T10:56:44.890Z,103521.50
2023-02-28T10:59:34.201Z,103528.13
2023-02-28T11:02:36.970Z,103518.13
2023-02-28T11:05:30.450Z,103532.13
2023-02-28T11:08:20.596Z,103519.56
2023-02-28T11:11:11.317Z,103522.72
2023-02-28T11:14:07.488Z,103515.00
2023-02-28T11:16:59.625Z,103517.41
2023-02-28T11:19:53.416Z,103509.03
2023-02-28T11:22:48.737Z,103521.97
2023-02-28T11:25:40.319Z,103512.66
2023-02-28T11:28:34.215Z,103518.97
2023-02-28T11:31:23.964Z,103513.56
2023-02-28T11:34:28.607Z,103511.41
2023-02-28T11:37:21.044Z,103517.66
2023-02-28T11:40:16.498Z,103515.75
2023-02-28T11:43:22.634Z,103523.97
2023-02-28T11:46:28.538Z,103515.28
2023-02-28T11:49:33.152Z,103523.94
2023-02-28T11:52:34.106Z,103518.19
2023-02-28T11:55:29.716Z,103521.13
2023-02-28T11:58:40.768Z,103526.78
2023-02-28T12:02:14.443Z,103528.13
2023-02-28T12:05:29.919Z,103528.53
2023-02-28T12:08:39.254Z,103516.38
2023-02-28T12:11:53.994Z,103519.81
2023-02-28T12:15:30.615Z,103516.72
2023-02-28T12:18:39.766Z,103509.91
2023-02-28T12:21:44.576Z,103513.91
2023-02-28T12:25:11.552Z,103508.09
2023-02-28T12:28:01.960Z,103503.03
2023-02-28T12:31:00.475Z,103506.03
2023-02-28T12:33:55.983Z,103497.53
2023-02-28T12:36:48.038Z,103490.00
2023-02-28T12:39:50.227Z,103492.34
2023-02-28T12:42:48.358Z,103494.50
2023-02-28T12:45:46.057Z,103490.16
2023-02-28T12:48:49.054Z,103490.03
2023-02-28T12:51:40.580Z,103494.63
2023-02-28T12:54:38.406Z,103486.69
2023-02-28T12:57:37.873Z,103492.31
2023-02-28T13:00:34.002Z,103489.00
2023-02-28T13:04:00.277Z,103491.59
2023-02-28T13:07:13.073Z,103485.00
2023-02-28T13:10:07.484Z,103487.44
2023-02-28T13:12:57.652Z,103472.00
2023-02-28T13:16:03.844Z,103469.31
2023-02-28T13:18:53.783Z,103471.38
2023-02-28T13:21:48.009Z,103463.31
2023-02-28T13:24:53.588Z,103460.13
2023-02-28T13:27:43.844Z,103470.16
2023-02-28T13:31:07.954Z,103464.91
2023-02-28T13:34:18.277Z,103456.84
2023-02-28T13:37:37.524Z,103454.25
2023-02-28T13:40:38.378Z,103469.06
2023-02-28T13:44:06.521Z,103454.69
2023-02-28T13:47:38.041Z,103455.56
2023-02-28T13:50:38.760Z,103442.47
2023-02-28T13:53:58.355Z,103449.88
2023-02-28T13:57:00.291Z,103441.66
2023-02-28T14:00:06.718Z,103444.16
2023-02-28T14:03:33.158Z,103444.59
2023-02-28T14:06:29.754Z,103444.16
2023-02-28T14:09:27.072Z,103446.25
2023-02-28T14:12:59.960Z,103444.53
2023-02-28T14:16:01.698Z,103446.06
2023-02-28T14:18:57.424Z,103445.00
2023-02-28T14:22:03.172Z,103440.69
2023-02-28T14:25:20.523Z,103437.72
2023-02-28T14:28:22.052Z,103411.50
2023-02-28T14:31:17.395Z,103421.69
2023-02-28T14:34:34.110Z,103430.34
2023-02-28T14:37:31.214Z,103427.84
2023-02-28T14:40:28.541Z,103436.91
2023-02-28T14:43:24.550Z,103430.63
2023-02-28T14:46:16.386Z,103438.69
2023-02-28T14:49:08.299Z,103425.16
2023-02-28T14:52:15.232Z,103443.91
2023-02-28T14:55:14.455Z,103427.75
2023-02-28T14:58:23.369Z,103437.75
2023-02-28T15:01:14.694Z,103425.28
2023-02-28T15:04:07.021Z,103418.50
2023-02-28T15:07:13.554Z,103424.44
2023-02-28T15:10:19.889Z,103417.91
2023-02-28T15:13:13.469Z,103409.47
2023-02-28T15:16:06.923Z,103414.56
2023-02-28T15:19:01.527Z,103421.69
2023-02-28T15:21:54.909Z,103417.06
2023-02-28T15:24:47.001Z,103418.22
2023-02-28T15:27:47.680Z,103416.00
2023-02-28T15:30:37.910Z,103416.47
2023-02-28T15:33:29.375Z,103406.25
2023-02-28T15:36:22.062Z,103413.13
2023-02-28T15:39:23.484Z,103400.66
2023-02-28T15:42:13.722Z,103315.66
2023-02-28T15:45:03.110Z,103410.06
2023-02-28T15:47:54.727Z,103416.34
2023-02-28T15:50:45.379Z,103411.72
2023-02-28T15:53:40.109Z,103406.38
2023-02-28T15:56:32.566Z,103411.00
2023-02-28T15:59:25.570Z,103408.63
2023-02-28T16:02:20.903Z,103412.19
2023-02-28T16:05:29.275Z,103406.59
2023-02-28T16:08:18.993Z,103407.19
2023-02-28T16:11:11.306Z,103401.38
2023-02-28T16:14:00.747Z,103418.94
2023-02-28T16:16:53.186Z,103413.97
2023-02-28T16:19:42.462Z,103419.78
2023-02-28T16:22:31.639Z,103419.44
2023-02-28T16:25:25.222Z,103411.34
2023-02-28T16:28:23.294Z,103415.28
2023-02-28T16:31:17.519Z,103389.97
2023-02-28T16:34:08.189Z,103409.78
2023-02-28T16:36:57.531Z,103422.28
2023-02-28T16:39:50.300Z,103412.03
2023-02-28T16:42:41.309Z,103422.00
2023-02-28T16:45:32.061Z,103415.13
2023-02-28T16:48:21.255Z,103417.59
2023-02-28T16:51:14.979Z,103417.50
2023-02-28T16:54:04.229Z,103406.69
2023-02-28T16:56:53.472Z,103421.28
2023-02-28T16:59:42.734Z,103411.56
2023-02-28T17:02:33.486Z,103401.22
2023-02-28T17:05:23.339Z,103412.03
2023-02-28T17:08:13.156Z,103422.97
2023-02-28T17:11:03.454Z,103419.75
2023-02-28T17:13:54.592Z,103415.34
2023-02-28T17:16:44.481Z,103407.50
2023-02-28T17:19:37.125Z,103416.88
2023-02-28T17:22:27.040Z,103428.19
2023-02-28T17:25:16.638Z,103426.13
2023-02-28T17:28:06.536Z,103428.88
2023-02-28T17:30:55.807Z,103420.09
2023-02-28T17:33:45.075Z,103427.19
2023-02-28T17:36:37.858Z,103434.41
2023-02-28T17:39:27.066Z,103425.41
2023-02-28T17:42:16.322Z,103437.16
2023-02-28T17:45:06.481Z,103444.28
2023-02-28T17:47:55.789Z,103443.81
2023-02-28T17:50:44.969Z,103436.94
2023-02-28T17:53:35.659Z,103438.31
2023-02-28T17:56:28.778Z,103439.06
2023-02-28T17:59:18.634Z,103445.22
2023-02-28T18:02:08.041Z,103453.53
2023-02-28T18:04:59.131Z,103452.47
2023-02-28T18:07:48.482Z,103458.78
2023-02-28T18:10:39.214Z,103465.91
2023-02-28T18:13:29.297Z,103456.50
2023-02-28T18:16:22.116Z,103463.59
2023-02-28T18:19:15.274Z,103463.50
2023-02-28T18:22:04.289Z,103467.88
2023-02-28T18:24:53.763Z,103466.34
2023-02-28T18:27:54.283Z,103463.00
2023-02-28T18:30:43.774Z,103454.94
2023-02-28T18:33:33.083Z,103455.00
2023-02-28T18:36:23.699Z,103463.81
2023-02-28T18:39:12.894Z,103471.19
2023-02-28T18:42:02.071Z,103463.84
2023-02-28T18:44:52.663Z,103463.50
2023-02-28T18:47:41.975Z,103454.09
2023-02-28T18:50:31.203Z,103455.53
2023-02-28T18:53:21.080Z,103464.69
2023-02-28T18:56:13.916Z,103461.44
2023-02-28T18:59:03.263Z,103460.53
2023-02-28T19:01:53.991Z,103462.66
2023-02-28T19:04:43.691Z,103461.94
2023-02-28T19:07:33.438Z,103460.28
2023-02-28T19:10:22.746Z,103475.16
2023-02-28T19:13:12.065Z,103469.31
2023-02-28T19:16:07.488Z,103462.78
2023-02-28T19:18:59.513Z,103470.75
2023-02-28T19:21:48.834Z,103468.25
2023-02-28T19:24:38.047Z,103451.38
2023-02-28T19:27:27.349Z,103465.50
2023-02-28T19:30:18.864Z,103467.66
2023-02-28T19:33:08.917Z,103456.50
2023-02-28T19:36:02.524Z,103461.00
2023-02-28T19:38:52.324Z,103472.00
2023-02-28T19:41:42.869Z,103459.28
2023-02-28T19:44:35.096Z,103474.41
2023-02-28T19:47:24.999Z,103476.06
2023-02-28T19:50:14.537Z,103477.72
2023-02-28T19:53:08.214Z,103478.75
2023-02-28T19:55:57.587Z,103497.75
2023-02-28T19:58:47.100Z,103485.56
2023-02-28T20:01:36.489Z,103485.78
2023-02-28T20:04:28.132Z,103484.81
2023-02-28T20:07:18.231Z,103485.66
2023-02-28T20:10:10.513Z,103478.84
2023-02-28T20:13:07.769Z,103489.88
2023-02-28T20:15:59.536Z,103480.03
2023-02-28T20:18:52.376Z,103483.00
2023-02-28T20:21:43.992Z,103480.03
2023-02-28T20:24:38.003Z,103479.72
2023-02-28T20:27:28.787Z,103479.13
2023-02-28T20:30:22.088Z,103480.78
2023-02-28T20:33:11.375Z,103479.47
2023-02-28T20:36:01.730Z,103482.22
2023-02-28T20:38:51.825Z,103479.13
2023-02-28T20:41:41.077Z,103475.47
2023-02-28T20:44:31.656Z,103479.25
2023-02-28T20:47:21.303Z,103480.69
2023-02-28T20:50:12.610Z,103480.94
2023-02-28T20:53:01.905Z,103471.28
2023-02-28T20:55:57.867Z,103465.25
2023-02-28T20:58:49.720Z,103463.09
2023-02-28T21:01:40.958Z,103460.63
2023-02-28T21:04:33.283Z,103462.88
2023-02-28T21:07:22.645Z,103462.28
2023-02-28T21:10:13.683Z,103465.16
2023-02-28T21:13:04.610Z,103467.88
2023-02-28T21:15:54.077Z,103467.06
2023-02-28T21:18:46.092Z,103464.31
2023-02-28T21:21:39.213Z,103453.50
2023-02-28T21:24:28.537Z,103453.66
2023-02-28T21:27:21.479Z,103450.91
2023-02-28T21:30:12.682Z,103459.09
2023-02-28T21:33:04.172Z,103448.78
2023-02-28T21:36:03.376Z,103445.56
2023-02-28T21:38:59.155Z,103453.41
2023-02-28T21:41:49.359Z,103451.13
2023-02-28T21:44:38.702Z,103449.38
2023-02-28T21:47:29.661Z,103456.38
2023-02-28T21:50:21.819Z,103451.97
2023-02-28T21:53:12.507Z,103455.16
2023-02-28T21:56:02.652Z,103457.88
2023-02-28T21:59:00.604Z,103449.94
2023-02-28T22:01:52.050Z,103453.03
2023-02-28T22:04:41.440Z,103446.50
2023-02-28T22:07:31.654Z,103436.78
2023-02-28T22:10:26.850Z,103429.28
2023-02-28T22:13:16.239Z,103448.03
2023-02-28T22:16:11.899Z,103441.38
2023-02-28T22:19:06.494Z,103456.47
2023-02-28T22:21:55.831Z,103449.78
2023-02-28T22:24:45.133Z,103441.84
2023-02-28T22:27:35.952Z,103442.31
2023-02-28T22:30:25.226Z,103444.66
2023-02-28T22:33:14.725Z,103458.38
2023-02-28T22:36:08.150Z,103449.56
2023-02-28T22:39:00.961Z,103448.28
2023-02-28T22:41:50.593Z,103451.31
2023-02-28T22:44:41.456Z,103463.75
2023-02-28T22:47:30.772Z,103452.69
2023-02-28T22:50:20.362Z,103460.47
2023-02-28T22:53:09.604Z,103459.06
2023-02-28T22:55:58.804Z,103456.09
2023-02-28T22:58:51.585Z,103454.66
2023-02-28T23:01:44.744Z,103437.41
2023-02-28T23:04:33.947Z,103455.72
2023-02-28T23:07:24.167Z,103461.78
2023-02-28T23:10:17.342Z,103450.88
2023-02-28T23:13:10.825Z,103447.31
2023-02-28T23:16:00.694Z,103451.28
2023-02-28T23:18:51.321Z,103450.88
2023-02-28T23:21:41.574Z,103440.81
2023-02-28T23:24:34.008Z,103447.56
2023-02-28T23:27:23.249Z,103449.38
2023-02-28T23:30:14.838Z,103440.81
2023-02-28T23:33:04.133Z,103455.19
2023-02-28T23:35:54.749Z,103434.22
2023-02-28T23:38:48.799Z,103442.78
2023-02-28T23:41:37.962Z,103424.38
2023-02-28T23:44:27.217Z,103437.91
2023-02-28T23:47:16.898Z,103412.72
2023-02-28T23:50:07.435Z,103435.78
2023-02-28T23:52:58.130Z,103434.34
2023-02-28T23:55:48.484Z,103427.25
2023-02-28T23:58:38.314Z,103416.94
